Waco, TX

4:55 PM CDT on April 18, 2015 (GMT -0500)
Greenleaf Peninsula | | Change Station
CLOSE
Current Station
Personal Weather Station
Location: Waco, TX
Elevation: 580 ft
Nearby Weather Stations

Elev 580 ft 31.56 °N, 97.20 °W | Updated 40 seconds ago

Scattered Clouds
Scattered Clouds
81.8 °F
Feels Like 84 °F
N
6.0
Wind Variable Wind from SE
Gusts 12.0 mph

Today
High -- | Low -- °F
--% Chance of Precip.
Yesterday
High -- | Low -- °F
Precip. -- in
6:57 AM 7:59 PM
New Moon, 0% visible
Pressure 29.76 in
Visibility 10.0 miles
Clouds Scattered Clouds 3300 ft
Scattered Clouds 4000 ft
Heat Index 84 °F
Dew Point 65 °F
Humidity 57%
Rainfall 0.02 in
Snow Depth Not available.
UV 4 out of 12
Pollen 6.70 out of 12
Air Quality Not available.
Flu Activity Local Activity
METAR KACT 182151Z 14007KT 10SM SCT033 SCT040 25/18 A2977 RMK AO2 SLP076 T02500178

More Conditions Fewer Conditions

Pressure 29.76 in
Visibility 10.0 miles
Clouds Scattered Clouds 3300 ft
Scattered Clouds 4000 ft
Heat Index 84 °F
Dew Point 65 °F
Humidity 57%
Rainfall 0.02 in
Snow Depth Not available.
UV 4 out of 12
Pollen 6.70 out of 12
Air Quality Not available.
Flu Activity Local Activity
METAR KACT 182151Z 14007KT 10SM SCT033 SCT040 25/18 A2977 RMK AO2 SLP076 T02500178

More Conditions Fewer Conditions

10-Day Weather Forecast

Almanac

Astronomy

Apr. 18, 2015 Rise Set
Actual Time
Civil Twilight
Nautical Twilight
Astronomical Twilight
Moon
Length of Visible Light
Length of Day
Tomorrow will be .
, % of the Moon is Illuminated

Today's Extremes

State Highs State Lows

Community

WunderPhotos

Upload Photos

1,814,538 photos uploaded!

WunderBlogs® & News

Nearby

Air Quality

  Air Quality AQ Index Pollutant
Not available.

Snow Depth

Station Depth Elevation

Earthquake Activity

City Distance Mag. Time & Date
Minimum magnitude displayed is 2.5.

Coastal Water Temperatures

Place Temperature

Stations

Nearby Weather Stations

Station Location Temp. Windchill Dew Point Humidity Wind Precip. Elev Updated Type